createdAt,value
2018-12-08T00:00:54.606Z,7.40
2018-12-08T00:02:00.139Z,7.45
2018-12-08T00:03:05.673Z,7.43
2018-12-08T00:04:11.206Z,7.42
2018-12-08T00:05:16.736Z,7.39
2018-12-08T00:06:22.273Z,7.43
2018-12-08T00:07:27.808Z,7.52
2018-12-08T00:08:33.341Z,7.45
2018-12-08T00:09:38.876Z,7.48
2018-12-08T00:10:44.409Z,7.48
2018-12-08T00:11:49.949Z,7.43
2018-12-08T00:12:55.474Z,7.45
2018-12-08T00:14:01.009Z,7.48
2018-12-08T00:15:06.541Z,7.40
2018-12-08T00:16:12.076Z,7.45
2018-12-08T00:17:17.608Z,7.42
2018-12-08T00:18:23.144Z,7.42
2018-12-08T00:19:28.677Z,7.37
2018-12-08T00:20:34.215Z,7.40
2018-12-08T00:21:39.743Z,7.42
2018-12-08T00:22:45.276Z,7.40
2018-12-08T00:23:50.809Z,7.48
2018-12-08T00:24:56.346Z,7.37
2018-12-08T00:26:01.881Z,7.46
2018-12-08T00:27:07.410Z,7.46
2018-12-08T00:28:12.947Z,7.46
2018-12-08T00:29:18.478Z,7.57
2018-12-08T00:30:24.018Z,7.52
2018-12-08T00:31:29.550Z,7.53
2018-12-08T00:32:35.079Z,7.55
2018-12-08T00:33:40.613Z,7.46
2018-12-08T00:34:46.151Z,7.48
2018-12-08T00:35:51.683Z,7.46
2018-12-08T00:36:57.217Z,7.50
2018-12-08T00:38:02.751Z,7.43
2018-12-08T00:39:08.282Z,7.49
2018-12-08T00:40:13.818Z,7.43
2018-12-08T00:41:19.349Z,7.37
2018-12-08T00:42:24.886Z,7.42
2018-12-08T00:43:30.417Z,7.37
2018-12-08T00:44:35.956Z,7.35
2018-12-08T00:45:41.484Z,7.40
2018-12-08T00:46:47.017Z,7.42
2018-12-08T00:47:52.559Z,7.39
2018-12-08T00:48:58.083Z,7.30
2018-12-08T00:50:03.617Z,7.28
2018-12-08T00:51:09.157Z,7.32
2018-12-08T00:52:14.685Z,7.31
2018-12-08T00:53:20.220Z,7.32
2018-12-08T00:54:25.755Z,7.31
2018-12-08T00:55:31.288Z,7.28
2018-12-08T00:56:36.820Z,7.27
2018-12-08T00:57:42.374Z,7.27
2018-12-08T00:58:47.887Z,7.34
2018-12-08T00:59:53.426Z,7.27
2018-12-08T01:00:58.955Z,7.34
2018-12-08T01:02:04.486Z,7.31
2018-12-08T01:03:10.024Z,7.32
2018-12-08T01:04:15.557Z,7.31
2018-12-08T01:05:21.089Z,7.30
2018-12-08T01:06:26.625Z,7.27
2018-12-08T01:07:32.159Z,7.30
2018-12-08T01:08:37.692Z,7.27
2018-12-08T01:09:43.222Z,7.28
2018-12-08T01:10:48.761Z,7.24
2018-12-08T01:11:54.293Z,7.24
2018-12-08T01:12:59.824Z,7.17
2018-12-08T01:14:05.362Z,7.17
2018-12-08T01:15:10.892Z,7.12
2018-12-08T01:16:16.425Z,7.20
2018-12-08T01:17:21.958Z,7.15
2018-12-08T01:18:27.493Z,7.10
2018-12-08T01:19:33.025Z,7.06
2018-12-08T01:20:38.564Z,7.07
2018-12-08T01:21:44.094Z,6.99
2018-12-08T01:22:49.635Z,7.05
2018-12-08T01:23:55.160Z,7.09
2018-12-08T01:25:00.695Z,6.89
2018-12-08T01:26:06.235Z,6.95
2018-12-08T01:27:11.763Z,6.94
2018-12-08T01:28:17.297Z,6.88
2018-12-08T01:29:22.833Z,6.91
2018-12-08T01:30:28.364Z,6.95
2018-12-08T01:31:33.902Z,6.80
2018-12-08T01:32:39.433Z,6.79
2018-12-08T01:33:44.966Z,6.70
2018-12-08T01:34:50.520Z,6.77
2018-12-08T01:35:56.034Z,6.79
2018-12-08T01:37:01.568Z,6.70
2018-12-08T01:38:07.105Z,6.62
2018-12-08T01:39:12.634Z,6.70
2018-12-08T01:40:18.167Z,6.61
2018-12-08T01:41:23.700Z,6.61
2018-12-08T01:42:29.234Z,6.64
2018-12-08T01:43:34.766Z,6.70
2018-12-08T01:44:40.304Z,6.62
2018-12-08T01:45:45.838Z,6.66
2018-12-08T01:46:51.365Z,6.71
2018-12-08T01:47:56.899Z,6.67
2018-12-08T01:49:02.433Z,6.67
2018-12-08T01:50:07.973Z,6.62
2018-12-08T01:51:13.497Z,6.62
2018-12-08T01:52:19.034Z,6.59
2018-12-08T01:53:24.567Z,6.62
2018-12-08T01:54:30.099Z,6.64
2018-12-08T01:55:35.631Z,6.74
2018-12-08T01:56:41.167Z,6.71
2018-12-08T01:57:46.699Z,6.71
2018-12-08T01:58:52.230Z,6.79
2018-12-08T01:59:57.765Z,6.79
2018-12-08T02:01:03.308Z,6.76
2018-12-08T02:02:08.838Z,6.76
2018-12-08T02:03:14.367Z,6.70
2018-12-08T02:04:19.898Z,6.66
2018-12-08T02:05:25.435Z,6.59
2018-12-08T02:06:30.964Z,6.66
2018-12-08T02:07:36.501Z,6.67
2018-12-08T02:08:42.037Z,6.69
2018-12-08T02:09:47.562Z,6.64
2018-12-08T02:10:53.099Z,6.64
2018-12-08T02:11:58.630Z,6.67
2018-12-08T02:13:04.163Z,6.59
2018-12-08T02:14:09.700Z,6.66
2018-12-08T02:15:15.230Z,6.66
2018-12-08T02:16:20.766Z,6.64
2018-12-08T02:17:26.295Z,6.58
2018-12-08T02:18:31.830Z,6.76
2018-12-08T02:19:37.364Z,6.79
2018-12-08T02:20:42.898Z,6.74
2018-12-08T02:21:48.432Z,6.79
2018-12-08T02:22:53.970Z,6.77
2018-12-08T02:23:59.495Z,6.84
2018-12-08T02:25:05.031Z,6.73
2018-12-08T02:26:10.564Z,6.71
2018-12-08T02:27:16.097Z,6.77
2018-12-08T02:28:21.630Z,6.74
2018-12-08T02:29:27.167Z,6.76
2018-12-08T02:30:32.703Z,6.76
2018-12-08T02:31:38.233Z,6.81
2018-12-08T02:32:43.770Z,6.87
2018-12-08T02:33:49.300Z,6.87
2018-12-08T02:34:54.832Z,6.89
2018-12-08T02:36:00.372Z,6.84
2018-12-08T02:37:05.900Z,6.89
2018-12-08T02:38:11.435Z,6.85
2018-12-08T02:39:16.969Z,6.85
2018-12-08T02:40:22.497Z,6.81
2018-12-08T02:41:28.031Z,6.88
2018-12-08T02:42:33.561Z,6.87
2018-12-08T02:43:39.095Z,6.74
2018-12-08T02:44:44.630Z,6.85
2018-12-08T02:45:50.163Z,6.73
2018-12-08T02:46:55.695Z,6.87
2018-12-08T02:48:01.229Z,6.89
2018-12-08T02:49:06.765Z,6.91
2018-12-08T02:50:12.309Z,6.89
2018-12-08T02:51:17.829Z,6.88
2018-12-08T02:52:23.362Z,6.73
2018-12-08T02:53:28.895Z,6.74
2018-12-08T02:54:34.432Z,6.80
2018-12-08T02:55:39.960Z,6.73
2018-12-08T02:56:45.494Z,6.77
2018-12-08T02:57:51.032Z,6.61
2018-12-08T02:58:56.563Z,6.67
2018-12-08T03:00:02.162Z,6.58
2018-12-08T03:01:07.627Z,6.55
2018-12-08T03:02:13.161Z,6.51
2018-12-08T03:03:18.700Z,6.48
2018-12-08T03:04:24.237Z,6.48
2018-12-08T03:05:29.758Z,6.51
2018-12-08T03:06:35.296Z,6.44
2018-12-08T03:07:40.826Z,6.40
2018-12-08T03:08:46.358Z,6.41
2018-12-08T03:09:51.898Z,6.48
2018-12-08T03:10:57.430Z,6.41
2018-12-08T03:12:02.964Z,6.40
2018-12-08T03:13:08.507Z,6.36
2018-12-08T03:14:14.025Z,6.38
2018-12-08T03:15:19.563Z,6.28
2018-12-08T03:16:25.092Z,6.41
2018-12-08T03:17:30.626Z,6.30
2018-12-08T03:18:36.167Z,6.27
2018-12-08T03:19:41.696Z,6.25
2018-12-08T03:20:47.230Z,6.31
2018-12-08T03:21:52.758Z,6.25
2018-12-08T03:22:58.290Z,6.28
2018-12-08T03:24:03.829Z,6.27
2018-12-08T03:25:09.358Z,6.18
2018-12-08T03:26:14.891Z,6.17
2018-12-08T03:27:20.426Z,6.17
2018-12-08T03:28:25.955Z,6.18
2018-12-08T03:29:31.494Z,6.21
2018-12-08T03:30:37.023Z,6.17
2018-12-08T03:31:42.557Z,6.14
2018-12-08T03:32:48.109Z,6.12
2018-12-08T03:33:53.621Z,6.06
2018-12-08T03:34:59.159Z,6.06
2018-12-08T03:36:04.686Z,5.96
2018-12-08T03:37:10.229Z,5.97
2018-12-08T03:38:15.757Z,6.03
2018-12-08T03:39:21.286Z,5.97
2018-12-08T03:40:26.826Z,6.03
2018-12-08T03:41:32.357Z,6.01
2018-12-08T03:42:37.891Z,6.06
2018-12-08T03:43:43.419Z,5.97
2018-12-08T03:44:48.953Z,6.06
2018-12-08T03:45:54.490Z,6.11
2018-12-08T03:47:00.018Z,6.08
2018-12-08T03:48:05.557Z,6.06
2018-12-08T03:49:11.087Z,6.12
2018-12-08T03:50:16.616Z,6.18
2018-12-08T03:51:22.155Z,6.19
2018-12-08T03:52:27.684Z,6.17
2018-12-08T03:53:33.220Z,6.11
2018-12-08T03:54:38.754Z,6.22
2018-12-08T03:55:45.048Z,6.33
2018-12-08T03:56:49.833Z,6.25
2018-12-08T03:57:55.347Z,6.30
2018-12-08T03:59:00.872Z,6.30
2018-12-08T04:00:06.417Z,6.31
2018-12-08T04:01:11.946Z,6.28
2018-12-08T04:02:17.478Z,6.40
2018-12-08T04:03:23.017Z,6.31
2018-12-08T04:04:28.545Z,6.41
2018-12-08T04:05:34.079Z,6.38
2018-12-08T04:06:39.610Z,6.30
2018-12-08T04:07:45.148Z,6.41
2018-12-08T04:08:50.673Z,6.36
2018-12-08T04:09:56.207Z,6.31
2018-12-08T04:11:01.747Z,6.40
2018-12-08T04:12:07.271Z,6.40
2018-12-08T04:13:12.807Z,6.43
2018-12-08T04:14:18.339Z,6.44
2018-12-08T04:15:23.873Z,6.38
2018-12-08T04:16:29.409Z,6.37
2018-12-08T04:17:34.941Z,6.41
2018-12-08T04:18:40.492Z,6.44
2018-12-08T04:19:46.010Z,6.48
2018-12-08T04:20:51.537Z,6.48
2018-12-08T04:21:57.069Z,6.52
2018-12-08T04:23:02.601Z,6.48
2018-12-08T04:24:08.141Z,6.41
2018-12-08T04:25:13.667Z,6.52
2018-12-08T04:26:19.209Z,6.44
2018-12-08T04:27:24.737Z,6.48
2018-12-08T04:28:30.268Z,6.46
2018-12-08T04:29:35.809Z,6.43
2018-12-08T04:30:41.336Z,6.51
2018-12-08T04:31:46.861Z,6.49
2018-12-08T04:32:52.399Z,6.52
2018-12-08T04:33:57.932Z,6.51
2018-12-08T04:35:03.470Z,6.56
2018-12-08T04:36:09.005Z,6.51
2018-12-08T04:37:14.536Z,6.49
2018-12-08T04:38:20.065Z,6.51
2018-12-08T04:39:25.593Z,6.51
2018-12-08T04:40:31.133Z,6.55
2018-12-08T04:41:36.662Z,6.46
2018-12-08T04:42:42.193Z,6.43
2018-12-08T04:43:47.726Z,6.43
2018-12-08T04:44:53.264Z,6.41
2018-12-08T04:45:58.791Z,6.40
2018-12-08T04:47:04.323Z,6.41
2018-12-08T04:48:09.860Z,6.38
2018-12-08T04:49:16.766Z,6.41
2018-12-08T04:50:20.920Z,6.41
2018-12-08T04:51:26.461Z,6.36
2018-12-08T04:52:31.989Z,6.43
2018-12-08T04:53:37.526Z,6.41
2018-12-08T04:54:43.056Z,6.43
2018-12-08T04:55:48.587Z,6.38
2018-12-08T04:56:54.124Z,6.37
2018-12-08T04:57:59.659Z,6.38
2018-12-08T04:59:05.186Z,6.38
2018-12-08T05:00:10.731Z,6.34
2018-12-08T05:01:16.254Z,6.46
2018-12-08T05:02:21.788Z,6.40
2018-12-08T05:03:27.316Z,6.46
2018-12-08T05:04:32.854Z,6.49
2018-12-08T05:05:38.385Z,6.55
2018-12-08T05:06:43.918Z,6.52
2018-12-08T05:07:49.449Z,6.46
2018-12-08T05:08:54.990Z,6.49
2018-12-08T05:10:00.511Z,6.43
2018-12-08T05:11:06.050Z,6.48
2018-12-08T05:12:11.586Z,6.52
2018-12-08T05:13:17.110Z,6.44
2018-12-08T05:14:22.644Z,6.48
2018-12-08T05:15:28.182Z,6.46
2018-12-08T05:16:33.720Z,6.46
2018-12-08T05:17:39.247Z,6.41
2018-12-08T05:18:44.777Z,6.49
2018-12-08T05:19:50.312Z,6.48
2018-12-08T05:20:55.844Z,6.49
2018-12-08T05:22:01.378Z,6.48
2018-12-08T05:23:06.920Z,6.54
2018-12-08T05:24:12.445Z,6.52
2018-12-08T05:25:17.979Z,6.55
2018-12-08T05:26:23.510Z,6.44
2018-12-08T05:27:29.042Z,6.48
2018-12-08T05:28:34.576Z,6.56
2018-12-08T05:29:40.108Z,6.54
2018-12-08T05:30:45.642Z,6.46
2018-12-08T05:31:51.182Z,6.49
2018-12-08T05:32:56.707Z,6.46
2018-12-08T05:34:02.245Z,6.44
2018-12-08T05:35:07.773Z,6.54
2018-12-08T05:36:13.304Z,6.51
2018-12-08T05:37:18.841Z,6.48
2018-12-08T05:38:24.372Z,6.48
2018-12-08T05:39:29.904Z,6.51
2018-12-08T05:40:35.444Z,6.49
2018-12-08T05:41:40.971Z,6.43
2018-12-08T05:42:46.509Z,6.48
2018-12-08T05:43:52.041Z,6.48
2018-12-08T05:44:57.570Z,6.48
2018-12-08T05:46:03.107Z,6.44
2018-12-08T05:47:08.633Z,6.49
2018-12-08T05:48:14.167Z,6.59
2018-12-08T05:49:19.708Z,6.51
2018-12-08T05:50:25.236Z,6.56
2018-12-08T05:51:30.773Z,6.56
2018-12-08T05:52:36.301Z,6.55
2018-12-08T05:53:41.840Z,6.56
2018-12-08T05:54:47.370Z,6.56
2018-12-08T05:55:52.904Z,6.52
2018-12-08T05:56:58.435Z,6.49
2018-12-08T05:58:03.976Z,6.52
2018-12-08T05:59:09.498Z,6.61
2018-12-08T06:00:15.037Z,6.56
2018-12-08T06:01:20.569Z,6.59
2018-12-08T06:02:26.105Z,6.51
2018-12-08T06:03:31.639Z,6.51
2018-12-08T06:04:37.165Z,6.55
2018-12-08T06:05:42.702Z,6.55
2018-12-08T06:06:48.236Z,6.59
2018-12-08T06:07:53.766Z,6.55
2018-12-08T06:08:59.296Z,6.56
2018-12-08T06:10:04.829Z,6.49
2018-12-08T06:11:10.368Z,6.56
2018-12-08T06:12:15.893Z,6.54
2018-12-08T06:13:21.430Z,6.58
2018-12-08T06:14:26.959Z,6.52
2018-12-08T06:15:32.490Z,6.51
2018-12-08T06:16:38.028Z,6.49
2018-12-08T06:17:43.557Z,6.46
2018-12-08T06:18:49.093Z,6.49
2018-12-08T06:19:54.631Z,6.43
2018-12-08T06:21:00.160Z,6.48
2018-12-08T06:22:05.697Z,6.49
2018-12-08T06:23:11.221Z,6.56
2018-12-08T06:24:16.762Z,6.43
2018-12-08T06:25:22.295Z,6.54
2018-12-08T06:26:27.825Z,6.51
2018-12-08T06:27:33.356Z,6.54
2018-12-08T06:28:38.977Z,6.44
2018-12-08T06:29:44.434Z,6.46
2018-12-08T06:30:49.962Z,6.54
2018-12-08T06:31:55.499Z,6.51
2018-12-08T06:33:01.020Z,6.56
2018-12-08T06:34:06.554Z,6.56
2018-12-08T06:35:12.084Z,6.46
2018-12-08T06:36:17.647Z,6.51
2018-12-08T06:37:23.151Z,6.49
2018-12-08T06:38:28.687Z,6.52
2018-12-08T06:39:34.218Z,6.55
2018-12-08T06:40:39.755Z,6.55
2018-12-08T06:41:45.285Z,6.58
2018-12-08T06:42:50.818Z,6.55
2018-12-08T06:43:56.351Z,6.49
2018-12-08T06:45:01.883Z,6.56
2018-12-08T06:46:07.418Z,6.61
2018-12-08T06:47:12.949Z,6.58
2018-12-08T06:48:18.480Z,6.56
2018-12-08T06:49:24.023Z,6.61
2018-12-08T06:50:29.551Z,6.55
2018-12-08T06:51:35.082Z,6.59
2018-12-08T06:52:40.617Z,6.56
2018-12-08T06:53:46.147Z,6.58
2018-12-08T06:54:51.722Z,6.62
2018-12-08T06:55:57.217Z,6.67
2018-12-08T06:57:02.747Z,6.62
2018-12-08T06:58:08.282Z,6.59
2018-12-08T06:59:13.813Z,6.62
2018-12-08T07:00:19.345Z,6.58
2018-12-08T07:01:24.878Z,6.66
2018-12-08T07:02:30.416Z,6.58
2018-12-08T07:03:35.949Z,6.51
2018-12-08T07:04:41.479Z,6.59
2018-12-08T07:05:47.010Z,6.59
2018-12-08T07:06:52.542Z,6.59
2018-12-08T07:07:58.086Z,6.56
2018-12-08T07:09:03.612Z,6.59
2018-12-08T07:10:09.148Z,6.61
2018-12-08T07:11:14.683Z,6.59
2018-12-08T07:12:20.209Z,6.59
2018-12-08T07:13:25.746Z,6.59
2018-12-08T07:14:31.275Z,6.64
2018-12-08T07:15:36.813Z,6.62
2018-12-08T07:16:42.339Z,6.66
2018-12-08T07:17:47.871Z,6.61
2018-12-08T07:18:53.408Z,6.66
2018-12-08T07:19:58.941Z,6.66
2018-12-08T07:21:04.471Z,6.62
2018-12-08T07:22:10.006Z,6.67
2018-12-08T07:23:15.540Z,6.69
2018-12-08T07:24:21.070Z,6.62
2018-12-08T07:25:26.610Z,6.59
2018-12-08T07:26:32.145Z,6.62
2018-12-08T07:27:37.674Z,6.74
2018-12-08T07:28:43.204Z,6.76
2018-12-08T07:29:48.737Z,6.74
2018-12-08T07:30:54.272Z,6.76
2018-12-08T07:31:59.803Z,6.73
2018-12-08T07:33:05.335Z,6.79
2018-12-08T07:34:10.869Z,6.80
2018-12-08T07:35:16.401Z,6.73
2018-12-08T07:36:21.931Z,6.73
2018-12-08T07:37:27.476Z,6.80
2018-12-08T07:38:33.002Z,6.87
2018-12-08T07:39:38.533Z,6.88
2018-12-08T07:40:44.070Z,6.87
2018-12-08T07:41:49.608Z,6.85
2018-12-08T07:42:55.131Z,6.88
2018-12-08T07:44:00.664Z,6.84
2018-12-08T07:45:06.197Z,6.88
2018-12-08T07:46:11.743Z,6.87
2018-12-08T07:47:17.269Z,6.88
2018-12-08T07:48:22.803Z,6.89
2018-12-08T07:49:28.334Z,6.85
2018-12-08T07:50:33.867Z,6.84
2018-12-08T07:51:39.402Z,6.87
2018-12-08T07:52:44.935Z,6.87
2018-12-08T07:53:50.462Z,6.79
2018-12-08T07:54:56.001Z,6.74
2018-12-08T07:56:01.535Z,6.85
2018-12-08T07:57:07.065Z,6.74
2018-12-08T07:58:12.606Z,6.73
2018-12-08T07:59:18.127Z,6.74
2018-12-08T08:00:23.663Z,6.77
2018-12-08T08:01:29.199Z,6.79
2018-12-08T08:02:34.734Z,6.81
2018-12-08T08:03:40.266Z,6.88
2018-12-08T08:04:45.791Z,6.88
2018-12-08T08:05:51.331Z,6.88
2018-12-08T08:06:56.862Z,6.89
2018-12-08T08:08:02.393Z,6.89
2018-12-08T08:09:07.927Z,6.97
2018-12-08T08:10:13.461Z,6.92
2018-12-08T08:11:19.904Z,6.92
2018-12-08T08:12:24.573Z,6.88
2018-12-08T08:13:30.059Z,7.02
2018-12-08T08:14:35.598Z,6.92
2018-12-08T08:15:41.132Z,7.02
2018-12-08T08:16:46.660Z,7.02
2018-12-08T08:17:52.194Z,7.03
2018-12-08T08:18:57.725Z,7.03
2018-12-08T08:20:03.258Z,7.05
2018-12-08T08:21:08.790Z,6.97
2018-12-08T08:22:14.330Z,6.99
2018-12-08T08:23:19.857Z,6.99
2018-12-08T08:24:25.391Z,7.07
2018-12-08T08:25:30.923Z,7.03
2018-12-08T08:26:36.456Z,7.05
2018-12-08T08:27:41.992Z,7.02
2018-12-08T08:28:47.526Z,7.05
2018-12-08T08:29:53.057Z,6.92
2018-12-08T08:30:58.596Z,7.03
2018-12-08T08:32:04.122Z,6.99
2018-12-08T08:33:09.660Z,7.03
2018-12-08T08:34:15.192Z,6.94
2018-12-08T08:35:20.726Z,6.92
2018-12-08T08:36:26.255Z,6.89
2018-12-08T08:37:31.791Z,6.91
2018-12-08T08:38:37.328Z,7.02
2018-12-08T08:39:42.857Z,6.92
2018-12-08T08:40:48.395Z,7.03
2018-12-08T08:41:53.923Z,7.05
2018-12-08T08:42:59.457Z,6.98
2018-12-08T08:44:04.992Z,6.98
2018-12-08T08:45:10.522Z,6.94
2018-12-08T08:46:16.057Z,7.03
2018-12-08T08:47:21.591Z,7.03
2018-12-08T08:48:27.126Z,7.07
2018-12-08T08:49:32.654Z,7.03
2018-12-08T08:50:38.195Z,7.02
2018-12-08T08:51:43.722Z,7.10
2018-12-08T08:52:49.257Z,7.07
2018-12-08T08:53:54.789Z,7.09
2018-12-08T08:55:00.321Z,7.16
2018-12-08T08:56:05.855Z,7.09
2018-12-08T08:57:11.395Z,7.24
2018-12-08T08:58:16.923Z,7.24
2018-12-08T08:59:22.453Z,7.27
2018-12-08T09:00:27.993Z,7.24
2018-12-08T09:01:33.522Z,7.21
2018-12-08T09:02:39.055Z,7.23
2018-12-08T09:03:44.593Z,7.27
2018-12-08T09:04:50.120Z,7.27
2018-12-08T09:05:55.658Z,7.37
2018-12-08T09:07:01.190Z,7.37
2018-12-08T09:08:06.726Z,7.30
2018-12-08T09:09:12.263Z,7.27
2018-12-08T09:10:17.783Z,7.35
2018-12-08T09:11:23.328Z,7.42
2018-12-08T09:12:28.855Z,7.48
2018-12-08T09:13:34.388Z,7.43
2018-12-08T09:14:39.928Z,7.42
2018-12-08T09:15:45.459Z,7.53
2018-12-08T09:16:50.988Z,7.50
2018-12-08T09:17:56.525Z,7.53
2018-12-08T09:19:02.060Z,7.55
2018-12-08T09:20:07.587Z,7.53
2018-12-08T09:21:13.121Z,7.63
2018-12-08T09:22:18.658Z,7.53
2018-12-08T09:23:24.235Z,7.63
2018-12-08T09:24:29.726Z,7.60
2018-12-08T09:25:35.261Z,7.55
2018-12-08T09:26:40.797Z,7.60
2018-12-08T09:27:46.326Z,7.63
2018-12-08T09:28:51.867Z,7.60
2018-12-08T09:29:57.429Z,7.55
2018-12-08T09:31:02.922Z,7.55
2018-12-08T09:32:08.454Z,7.60
2018-12-08T09:33:13.992Z,7.61
2018-12-08T09:34:19.576Z,7.72
2018-12-08T09:35:25.059Z,7.63
2018-12-08T09:36:30.590Z,7.60
2018-12-08T09:37:36.123Z,7.72
2018-12-08T09:38:41.657Z,7.60
2018-12-08T09:39:47.190Z,7.60
2018-12-08T09:40:52.724Z,7.64
2018-12-08T09:41:58.269Z,7.72
2018-12-08T09:43:03.798Z,7.74
2018-12-08T09:44:09.326Z,7.69
2018-12-08T09:45:14.874Z,7.79
2018-12-08T09:46:20.396Z,7.74
2018-12-08T09:47:25.930Z,7.75
2018-12-08T09:48:31.461Z,7.75
2018-12-08T09:49:36.994Z,7.75
2018-12-08T09:50:42.526Z,7.71
2018-12-08T09:51:48.065Z,7.75
2018-12-08T09:52:53.591Z,7.77
2018-12-08T09:53:59.129Z,7.79
2018-12-08T09:55:04.662Z,7.86
2018-12-08T09:56:10.194Z,7.89
2018-12-08T09:57:15.736Z,7.83
2018-12-08T09:58:22.235Z,7.85
2018-12-08T09:59:26.803Z,7.89
2018-12-08T10:00:32.329Z,7.92
2018-12-08T10:01:37.862Z,7.87
2018-12-08T10:02:43.399Z,7.85
2018-12-08T10:03:48.936Z,7.90
2018-12-08T10:04:54.464Z,7.92
2018-12-08T10:06:00.001Z,7.93
2018-12-08T10:07:05.531Z,7.86
2018-12-08T10:08:11.067Z,7.87
2018-12-08T10:09:16.605Z,7.90
2018-12-08T10:10:22.136Z,7.93
2018-12-08T10:11:27.664Z,8.04
2018-12-08T10:12:33.199Z,7.93
2018-12-08T10:13:38.733Z,7.95
2018-12-08T10:14:44.276Z,7.98
2018-12-08T10:15:49.799Z,7.87
2018-12-08T10:16:55.336Z,7.89
2018-12-08T10:18:00.868Z,8.00
2018-12-08T10:19:06.400Z,7.95
2018-12-08T10:20:11.933Z,8.04
2018-12-08T10:21:17.469Z,7.98
2018-12-08T10:22:23.001Z,7.97
2018-12-08T10:23:28.536Z,7.92
2018-12-08T10:24:34.077Z,8.01
2018-12-08T10:25:39.603Z,8.10
2018-12-08T10:26:45.143Z,7.95
2018-12-08T10:27:50.668Z,8.01
2018-12-08T10:28:56.206Z,7.98
2018-12-08T10:30:01.738Z,8.00
2018-12-08T10:31:07.278Z,7.95
2018-12-08T10:32:12.803Z,8.02
2018-12-08T10:33:18.340Z,8.01
2018-12-08T10:34:23.879Z,8.01
2018-12-08T10:35:29.408Z,8.04
2018-12-08T10:36:34.939Z,8.07
2018-12-08T10:37:40.472Z,8.05
2018-12-08T10:38:46.006Z,8.04
2018-12-08T10:39:51.542Z,8.00
2018-12-08T10:40:57.074Z,7.98
2018-12-08T10:42:02.609Z,8.05
2018-12-08T10:43:08.148Z,8.00
2018-12-08T10:44:13.677Z,8.01
2018-12-08T10:45:19.211Z,8.16
2018-12-08T10:46:24.747Z,8.01
2018-12-08T10:47:30.283Z,8.01
2018-12-08T10:48:35.811Z,8.07
2018-12-08T10:49:41.343Z,8.08
2018-12-08T10:50:46.879Z,8.01
2018-12-08T10:51:52.417Z,8.19
2018-12-08T10:52:57.946Z,8.01
2018-12-08T10:54:03.480Z,8.12
2018-12-08T10:55:09.011Z,8.02
2018-12-08T10:56:14.545Z,8.08
2018-12-08T10:57:20.079Z,8.10
2018-12-08T10:58:25.614Z,8.11
2018-12-08T10:59:31.149Z,8.00
2018-12-08T11:00:36.683Z,8.10
2018-12-08T11:01:42.216Z,8.08
2018-12-08T11:02:47.752Z,8.05
2018-12-08T11:03:53.296Z,8.00
2018-12-08T11:04:58.817Z,8.02
2018-12-08T11:06:04.349Z,8.05
2018-12-08T11:07:09.888Z,8.05
2018-12-08T11:08:15.414Z,8.10
2018-12-08T11:09:20.957Z,8.15
2018-12-08T11:10:26.489Z,8.10
2018-12-08T11:11:32.017Z,8.22
2018-12-08T11:12:37.646Z,8.22
2018-12-08T11:13:43.085Z,8.12
2018-12-08T11:14:48.622Z,8.18
2018-12-08T11:15:54.159Z,8.18
2018-12-08T11:16:59.685Z,8.19
2018-12-08T11:18:05.226Z,8.12
2018-12-08T11:19:10.761Z,8.16
2018-12-08T11:20:16.290Z,8.26
2018-12-08T11:21:21.825Z,8.26
2018-12-08T11:22:27.354Z,8.16
2018-12-08T11:23:32.887Z,8.20
2018-12-08T11:24:38.431Z,8.16
2018-12-08T11:25:43.959Z,8.15
2018-12-08T11:26:49.488Z,8.15
2018-12-08T11:27:55.024Z,8.26
2018-12-08T11:29:00.557Z,8.16
2018-12-08T11:30:06.093Z,8.19
2018-12-08T11:31:11.628Z,8.18
2018-12-08T11:32:17.160Z,8.12
2018-12-08T11:33:22.696Z,8.12
2018-12-08T11:34:28.229Z,8.10
2018-12-08T11:35:33.759Z,8.04
2018-12-08T11:36:39.303Z,8.02
2018-12-08T11:37:44.830Z,8.01
2018-12-08T11:38:50.364Z,8.04
2018-12-08T11:39:55.895Z,8.16
2018-12-08T11:41:01.429Z,8.08
2018-12-08T11:42:06.964Z,8.05
2018-12-08T11:43:12.498Z,8.02
2018-12-08T11:44:18.032Z,8.02
2018-12-08T11:45:23.567Z,8.11
2018-12-08T11:46:29.101Z,8.08
2018-12-08T11:47:34.639Z,8.05
2018-12-08T11:48:40.171Z,8.00
2018-12-08T11:49:45.702Z,8.08
2018-12-08T11:50:51.239Z,8.02
2018-12-08T11:51:56.772Z,8.00
2018-12-08T11:53:02.307Z,8.00
2018-12-08T11:54:07.837Z,7.98
2018-12-08T11:55:13.377Z,8.08
2018-12-08T11:56:18.910Z,8.01
2018-12-08T11:57:24.441Z,8.07
2018-12-08T11:58:29.973Z,8.04
2018-12-08T11:59:35.514Z,7.97
2018-12-08T12:00:41.056Z,8.02
2018-12-08T12:01:46.574Z,7.98
2018-12-08T12:02:52.110Z,8.05
2018-12-08T12:03:57.641Z,8.15
2018-12-08T12:05:03.174Z,8.07
2018-12-08T12:06:08.716Z,8.02
2018-12-08T12:07:14.245Z,8.05
2018-12-08T12:08:19.778Z,8.01
2018-12-08T12:09:25.315Z,8.08
2018-12-08T12:10:30.845Z,8.05
2018-12-08T12:11:36.377Z,7.98
2018-12-08T12:12:41.912Z,8.02
2018-12-08T12:13:47.449Z,8.05
2018-12-08T12:14:52.981Z,8.12
2018-12-08T12:15:58.517Z,8.15
2018-12-08T12:17:04.057Z,8.16
2018-12-08T12:18:09.584Z,8.29
2018-12-08T12:19:15.119Z,8.16
2018-12-08T12:20:20.655Z,8.23
2018-12-08T12:21:26.184Z,8.23
2018-12-08T12:22:31.717Z,8.26
2018-12-08T12:23:37.256Z,8.19
2018-12-08T12:24:42.785Z,8.16
2018-12-08T12:25:48.318Z,8.25
2018-12-08T12:26:53.852Z,8.12
2018-12-08T12:27:59.387Z,8.11
2018-12-08T12:29:04.923Z,8.18
2018-12-08T12:30:10.459Z,8.23
2018-12-08T12:31:15.993Z,8.11
2018-12-08T12:32:21.529Z,8.15
2018-12-08T12:33:27.056Z,8.15
2018-12-08T12:34:32.685Z,8.12
2018-12-08T12:35:38.124Z,8.19
2018-12-08T12:36:43.656Z,8.15
2018-12-08T12:37:49.193Z,8.10
2018-12-08T12:38:54.723Z,8.10
2018-12-08T12:40:00.260Z,8.10
2018-12-08T12:41:05.793Z,8.05
2018-12-08T12:42:11.330Z,8.12
2018-12-08T12:43:16.862Z,8.07
2018-12-08T12:44:22.396Z,8.11
2018-12-08T12:45:27.929Z,7.98
2018-12-08T12:46:33.457Z,7.98
2018-12-08T12:47:39.002Z,8.01
2018-12-08T12:48:44.530Z,8.04
2018-12-08T12:49:50.073Z,8.02
2018-12-08T12:50:55.600Z,8.01
2018-12-08T12:52:01.130Z,8.01
2018-12-08T12:53:06.667Z,7.93
2018-12-08T12:54:12.204Z,7.90
2018-12-08T12:55:17.738Z,7.97
2018-12-08T12:56:23.270Z,8.02
2018-12-08T12:57:28.805Z,7.92
2018-12-08T12:58:34.339Z,8.00
2018-12-08T12:59:39.878Z,8.00
2018-12-08T13:00:45.405Z,8.00
2018-12-08T13:01:50.942Z,7.98
2018-12-08T13:02:56.477Z,7.90
2018-12-08T13:04:02.017Z,8.04
2018-12-08T13:05:07.544Z,7.92
2018-12-08T13:06:13.089Z,8.04
2018-12-08T13:07:18.617Z,7.98
2018-12-08T13:08:24.144Z,8.00
2018-12-08T13:09:29.683Z,8.05
2018-12-08T13:10:35.215Z,8.04
2018-12-08T13:11:40.744Z,8.11
2018-12-08T13:12:46.282Z,8.02
2018-12-08T13:13:51.811Z,8.01
2018-12-08T13:14:57.350Z,8.07
2018-12-08T13:16:02.883Z,8.11
2018-12-08T13:17:08.425Z,8.15
2018-12-08T13:18:13.954Z,8.19
2018-12-08T13:19:19.485Z,8.12
2018-12-08T13:20:25.021Z,8.15
2018-12-08T13:21:30.552Z,8.19
2018-12-08T13:22:36.086Z,8.16
2018-12-08T13:23:41.622Z,8.12
2018-12-08T13:24:47.163Z,8.18
2018-12-08T13:25:52.690Z,8.15
2018-12-08T13:26:58.222Z,8.18
2018-12-08T13:28:03.755Z,8.20
2018-12-08T13:29:09.295Z,8.20
2018-12-08T13:30:14.830Z,8.16
2018-12-08T13:31:20.359Z,8.20
2018-12-08T13:32:25.895Z,8.28
2018-12-08T13:33:31.424Z,8.26
2018-12-08T13:34:36.960Z,8.22
2018-12-08T13:35:42.504Z,8.20
2018-12-08T13:36:48.029Z,8.16
2018-12-08T13:37:53.564Z,8.18
2018-12-08T13:38:59.102Z,8.23
2018-12-08T13:40:04.630Z,8.25
2018-12-08T13:41:10.169Z,8.25
2018-12-08T13:42:15.701Z,8.20
2018-12-08T13:43:21.235Z,8.18
2018-12-08T13:44:26.769Z,8.15
2018-12-08T13:45:32.304Z,8.19
2018-12-08T13:46:37.839Z,8.16
2018-12-08T13:47:43.376Z,8.19
2018-12-08T13:48:48.906Z,8.16
2018-12-08T13:49:54.437Z,8.15
2018-12-08T13:50:59.972Z,8.18
2018-12-08T13:52:05.524Z,8.18
2018-12-08T13:53:11.041Z,8.19
2018-12-08T13:54:16.572Z,8.25
2018-12-08T13:55:22.105Z,8.19
2018-12-08T13:56:27.687Z,8.26
2018-12-08T13:57:33.176Z,8.18
2018-12-08T13:58:38.709Z,8.22
2018-12-08T13:59:44.259Z,8.19
2018-12-08T14:00:49.781Z,8.30
2018-12-08T14:01:55.313Z,8.26
2018-12-08T14:03:00.846Z,8.30
2018-12-08T14:04:06.388Z,8.29
2018-12-08T14:05:11.917Z,8.30
2018-12-08T14:06:17.449Z,8.30
2018-12-08T14:07:22.981Z,8.33
2018-12-08T14:08:28.518Z,8.34
2018-12-08T14:09:34.050Z,8.33
2018-12-08T14:10:39.595Z,8.34
2018-12-08T14:11:45.120Z,8.41
2018-12-08T14:12:50.657Z,8.44
2018-12-08T14:13:56.188Z,8.37
2018-12-08T14:15:01.721Z,8.43
2018-12-08T14:16:07.255Z,8.48
2018-12-08T14:17:12.790Z,8.43
2018-12-08T14:18:18.334Z,8.38
2018-12-08T14:19:23.860Z,8.43
2018-12-08T14:20:29.392Z,8.38
2018-12-08T14:21:34.926Z,8.44
2018-12-08T14:22:40.462Z,8.36
2018-12-08T14:23:45.994Z,8.48
2018-12-08T14:24:51.528Z,8.41
2018-12-08T14:25:57.066Z,8.44
2018-12-08T14:27:02.600Z,8.45
2018-12-08T14:28:08.137Z,8.45
2018-12-08T14:29:13.666Z,8.43
2018-12-08T14:30:19.198Z,8.38
2018-12-08T14:31:24.738Z,8.41
2018-12-08T14:32:30.268Z,8.41